Авиационная погода в Бухте Провидения

Погода METAR: 
UHMD 210200Z 01005MPS CAVOK M17/M22 Q1009 RMK QFE756/1008
Время наблюдения
2022-01-21T02:00:00Z
Температура C
-17.0
Точка росы
-22.0
Направление ветра
10
Скорость ветра (узлы)
10
Метео видимость
6.21
Облачность
CAVOK
Нижняя граница облачности (футы)
Явления погоды
Условия полета
VFR
Аэропорт подробнее: